ENV weather

Wendover Airport
Wendover, Utah, United States

Public forecast

Using degrees Fahrenheit for public forecast. Weather courtesy of forecast.io.

Current aviation weather report (METAR) for Wendover Airport

Retrieved 2020/06/02 22:56 UTC (40 minutes ago):

KENV 022256Z AUTO 11007KT 10SM CLR 28/03 A3012 RMK AO2 SLP162 T02830033

Aviation forecast (TAF) for Wendover Airport

Retrieved 2020/06/02 18:42 UTC (5 hours ago):

TAF KENV 021739Z 0218/0318 10006KT P6SM SCT150 FM030300 03005KT P6SM SCT100